createdAt,value
2023-02-23T03:29:35.743Z,29.90
2023-02-23T03:32:30.043Z,29.53
2023-02-23T03:35:24.591Z,28.07
2023-02-23T03:38:15.933Z,28.97
2023-02-23T03:43:55.516Z,27.60
2023-02-23T03:46:43.717Z,28.37
2023-02-23T03:49:31.790Z,29.07
2023-02-23T04:06:17.614Z,28.30
2023-02-23T04:09:04.188Z,27.80
2023-02-23T04:11:56.079Z,27.05
2023-02-23T04:16:53.710Z,28.67
2023-02-23T04:19:21.953Z,27.53
2023-02-23T04:21:50.428Z,29.03
2023-02-23T04:24:18.584Z,28.53
2023-02-23T04:34:12.448Z,26.80
2023-02-23T04:36:40.959Z,27.17
2023-02-23T04:39:09.171Z,25.30
2023-02-23T04:41:37.359Z,24.23
2023-02-23T04:44:05.849Z,24.70
2023-02-23T04:46:34.037Z,25.60
2023-02-23T04:49:02.225Z,23.50
2023-02-23T04:51:33.899Z,23.93
2023-02-23T04:54:02.306Z,22.67
2023-02-23T04:56:30.977Z,23.23
2023-02-23T04:58:59.266Z,23.37
2023-02-23T05:01:28.937Z,22.87
2023-02-23T05:03:57.102Z,23.50
2023-02-23T05:06:25.231Z,21.10
2023-02-23T05:08:54.772Z,21.57
2023-02-23T05:11:23.054Z,23.07
2023-02-23T05:13:52.169Z,21.87
2023-02-23T05:16:20.342Z,22.50
2023-02-23T05:18:48.558Z,21.73
2023-02-23T05:21:17.260Z,21.47
2023-02-23T05:23:45.509Z,21.50
2023-02-23T05:26:15.268Z,21.80
2023-02-23T05:28:44.291Z,19.73
2023-02-23T05:31:13.122Z,20.50
2023-02-23T05:33:43.145Z,21.00
2023-02-23T05:36:12.264Z,20.60
2023-02-23T05:38:41.142Z,20.57
2023-02-23T05:41:10.047Z,18.73
2023-02-23T05:43:39.988Z,19.67
2023-02-23T05:46:08.835Z,20.00
2023-02-23T05:48:37.246Z,18.83
2023-02-23T05:51:06.692Z,16.17
2023-02-23T05:53:35.084Z,16.27
2023-02-23T05:56:04.009Z,14.97
2023-02-23T05:58:32.783Z,14.47
2023-02-23T06:01:02.630Z,14.10
2023-02-23T06:03:30.814Z,15.93
2023-02-23T06:06:00.290Z,15.03
2023-02-23T06:08:28.486Z,15.97
2023-02-23T06:10:58.361Z,16.57
2023-02-23T06:13:26.936Z,16.83
2023-02-23T06:15:55.246Z,16.20
2023-02-23T06:18:25.001Z,16.97
2023-02-23T06:20:54.859Z,17.60
2023-02-23T06:23:23.142Z,19.20
2023-02-23T06:25:51.395Z,17.00
2023-02-23T06:28:19.495Z,17.80
2023-02-23T06:30:48.887Z,18.80
2023-02-23T06:33:17.160Z,19.60
2023-02-23T06:35:46.797Z,17.57
2023-02-23T06:38:15.117Z,18.83
2023-02-23T06:40:44.116Z,19.97
2023-02-23T06:43:12.430Z,19.40
2023-02-23T06:45:40.882Z,19.03
2023-02-23T06:48:09.575Z,19.90
2023-02-23T06:50:38.188Z,18.77
2023-02-23T06:53:07.637Z,19.43
2023-02-23T06:55:35.948Z,19.17
2023-02-23T06:58:06.480Z,19.00
2023-02-23T07:00:34.717Z,17.87
2023-02-23T07:03:02.829Z,18.10
2023-02-23T07:05:30.970Z,17.20
2023-02-23T07:07:59.145Z,18.50
2023-02-23T07:10:28.688Z,18.33
2023-02-23T07:12:57.155Z,17.50
2023-02-23T07:15:25.398Z,18.10
2023-02-23T07:17:54.066Z,18.63
2023-02-23T07:20:22.458Z,18.60
2023-02-23T07:22:50.907Z,18.07
2023-02-23T07:25:19.971Z,18.77
2023-02-23T07:27:51.542Z,19.60
2023-02-23T07:30:24.773Z,19.67
2023-02-23T07:32:53.094Z,18.97
2023-02-23T07:35:21.623Z,17.90
2023-02-23T07:37:50.505Z,18.23
2023-02-23T07:40:20.320Z,18.63
2023-02-23T07:42:50.023Z,18.70
2023-02-23T07:45:18.469Z,20.10
2023-02-23T07:47:46.707Z,19.73
2023-02-23T07:50:15.664Z,19.10
2023-02-23T07:52:45.486Z,19.17
2023-02-23T07:55:13.978Z,19.30
2023-02-23T07:57:42.148Z,17.63
2023-02-23T08:00:12.980Z,19.00
2023-02-23T08:02:41.486Z,19.00
2023-02-23T08:05:09.951Z,19.33
2023-02-23T08:07:38.647Z,17.73
2023-02-23T08:10:07.775Z,19.00
2023-02-23T08:12:36.812Z,17.87
2023-02-23T08:15:08.306Z,17.73
2023-02-23T08:17:38.903Z,17.50
2023-02-23T08:20:09.213Z,17.13
2023-02-23T08:22:48.825Z,17.47
2023-02-23T08:25:18.749Z,16.37
2023-02-23T08:27:47.499Z,16.30
2023-02-23T08:30:16.691Z,16.13
2023-02-23T08:32:47.352Z,15.30
2023-02-23T08:35:16.270Z,16.13
2023-02-23T08:37:45.378Z,15.80
2023-02-23T08:40:15.690Z,16.13
2023-02-23T08:42:44.031Z,15.70
2023-02-23T08:45:13.250Z,15.13
2023-02-23T08:47:43.278Z,14.70
2023-02-23T08:50:14.654Z,15.83
2023-02-23T08:52:43.691Z,14.07
2023-02-23T08:55:13.861Z,14.63
2023-02-23T08:57:42.004Z,14.73
2023-02-23T09:00:16.789Z,14.13
2023-02-23T09:02:48.144Z,14.40
2023-02-23T09:05:18.293Z,14.27
2023-02-23T09:07:47.551Z,14.07
2023-02-23T09:10:17.029Z,13.67
2023-02-23T09:12:46.037Z,13.97
2023-02-23T09:15:14.277Z,14.00
2023-02-23T09:17:44.899Z,13.07
2023-02-23T09:20:15.797Z,14.30
2023-02-23T09:22:48.545Z,13.73
2023-02-23T09:25:19.287Z,14.47
2023-02-23T09:27:47.755Z,13.33
2023-02-23T09:30:17.767Z,13.47
2023-02-23T09:32:46.392Z,13.23
2023-02-23T09:35:18.111Z,13.97
2023-02-23T09:37:48.858Z,13.77
2023-02-23T09:40:20.308Z,8.83
2023-02-23T09:43:00.226Z,8.97
2023-02-23T09:45:39.430Z,12.17
2023-02-23T09:48:16.648Z,13.30
2023-02-23T09:50:48.934Z,10.73
2023-02-23T09:53:31.621Z,10.97
2023-02-23T09:56:07.178Z,10.40
2023-02-23T09:58:36.160Z,9.73
2023-02-23T10:01:36.149Z,10.67
2023-02-23T10:04:12.585Z,10.73
2023-02-23T10:06:43.370Z,10.97
2023-02-23T10:09:23.865Z,11.27
2023-02-23T10:12:03.248Z,10.80
2023-02-23T10:14:46.892Z,11.27
2023-02-23T10:17:26.664Z,10.30
2023-02-23T10:20:02.437Z,9.63
2023-02-23T10:22:33.791Z,9.37
2023-02-23T10:25:09.311Z,10.00
2023-02-23T10:27:41.988Z,9.30
2023-02-23T10:30:19.958Z,10.20
2023-02-23T10:32:55.189Z,8.93
2023-02-23T10:35:24.589Z,8.90
2023-02-23T10:37:55.287Z,7.63
2023-02-23T10:40:28.823Z,7.47
2023-02-23T10:42:58.452Z,8.20
2023-02-23T10:45:28.675Z,7.57
2023-02-23T10:48:01.570Z,7.40
2023-02-23T10:50:31.593Z,7.77
2023-02-23T10:53:01.500Z,7.67
2023-02-23T10:55:33.018Z,7.27
2023-02-23T10:58:16.860Z,7.07
2023-02-23T11:00:54.349Z,7.50
2023-02-23T11:03:27.693Z,7.30
2023-02-23T11:05:56.325Z,7.57
2023-02-23T11:08:31.658Z,7.57
2023-02-23T11:11:08.948Z,6.90
2023-02-23T11:13:40.409Z,5.83
2023-02-23T11:16:13.750Z,5.20
2023-02-23T11:18:54.835Z,5.73
2023-02-23T11:21:33.290Z,7.27
2023-02-23T11:24:11.420Z,7.43
2023-02-23T11:26:45.145Z,7.73
2023-02-23T11:29:23.370Z,7.97
2023-02-23T11:31:54.536Z,8.80
2023-02-23T11:34:29.468Z,8.00
2023-02-23T11:37:07.153Z,8.03
2023-02-23T11:39:35.764Z,7.70
2023-02-23T11:42:25.391Z,7.80
2023-02-23T11:45:03.849Z,6.87
2023-02-23T11:47:35.092Z,7.30
2023-02-23T11:50:05.638Z,7.27
2023-02-23T11:52:34.125Z,8.70
2023-02-23T11:55:07.045Z,6.90
2023-02-23T11:57:37.842Z,7.93
2023-02-23T12:00:15.281Z,7.03
2023-02-23T12:02:52.330Z,6.87
2023-02-23T12:05:25.219Z,7.03
2023-02-23T12:07:59.678Z,7.73
2023-02-23T12:10:32.275Z,7.30
2023-02-23T12:13:10.905Z,8.03
2023-02-23T12:15:46.972Z,7.53
2023-02-23T12:18:38.830Z,7.43
2023-02-23T12:21:20.566Z,7.70
2023-02-23T12:23:52.797Z,7.60
2023-02-23T12:26:23.181Z,8.67
2023-02-23T12:28:58.771Z,8.70
2023-02-23T12:31:32.243Z,8.83
2023-02-23T12:34:05.261Z,8.77
2023-02-23T12:36:39.229Z,9.40
2023-02-23T12:39:18.508Z,9.00
2023-02-23T12:41:49.880Z,8.97
2023-02-23T12:44:31.173Z,7.67
2023-02-23T12:47:05.925Z,8.07
2023-02-23T12:49:40.797Z,8.90
2023-02-23T12:52:14.743Z,9.83
2023-02-23T12:54:47.017Z,9.50
2023-02-23T12:57:28.156Z,9.73
2023-02-23T13:00:39.309Z,9.80
2023-02-23T13:03:46.427Z,8.03
2023-02-23T13:06:23.904Z,7.67
2023-02-23T13:09:06.018Z,6.47
2023-02-23T13:12:07.123Z,8.33
2023-02-23T13:14:44.125Z,7.23
2023-02-23T13:17:32.947Z,5.90
2023-02-23T13:20:07.704Z,4.80
2023-02-23T13:22:41.920Z,5.67
2023-02-23T13:25:22.925Z,7.27
2023-02-23T13:27:56.666Z,6.63
2023-02-23T13:30:25.055Z,7.33
2023-02-23T13:32:55.967Z,7.37
2023-02-23T13:35:25.510Z,7.83
2023-02-23T13:37:56.999Z,7.63
2023-02-23T13:40:32.688Z,7.80
2023-02-23T13:43:17.699Z,8.73
2023-02-23T13:46:00.379Z,7.97
2023-02-23T13:48:57.300Z,8.43
2023-02-23T13:51:36.641Z,8.07
2023-02-23T13:54:08.273Z,7.70
2023-02-23T13:56:44.010Z,5.73
2023-02-23T13:59:19.465Z,5.93
2023-02-23T14:01:54.212Z,4.73
2023-02-23T14:04:38.211Z,5.10
2023-02-23T14:07:28.741Z,5.83
2023-02-23T14:10:20.502Z,6.10
2023-02-23T14:13:24.755Z,5.63
2023-02-23T14:16:17.983Z,4.80
2023-02-23T14:19:15.606Z,5.57
2023-02-23T14:22:03.674Z,4.80
2023-02-23T14:24:32.472Z,4.83
2023-02-23T14:27:41.035Z,5.70
2023-02-23T14:30:27.840Z,5.23
2023-02-23T14:33:36.341Z,5.40
2023-02-23T14:36:37.794Z,5.87
2023-02-23T14:39:26.957Z,6.43
2023-02-23T14:42:10.334Z,5.80
2023-02-23T14:44:55.177Z,5.73
2023-02-23T14:47:47.864Z,7.60
2023-02-23T14:50:32.764Z,6.93
2023-02-23T14:53:19.048Z,6.10
2023-02-23T14:56:03.771Z,7.20
2023-02-23T14:58:52.056Z,6.80
2023-02-23T15:01:37.546Z,6.97
2023-02-23T15:04:23.730Z,6.93
2023-02-23T15:07:16.879Z,6.30
2023-02-23T15:10:02.234Z,5.93
2023-02-23T15:12:48.227Z,6.37
2023-02-23T15:15:23.650Z,6.03
2023-02-23T15:18:06.850Z,5.73
2023-02-23T15:20:51.330Z,5.10
2023-02-23T15:23:37.706Z,5.60
2023-02-23T15:26:31.959Z,5.43
2023-02-23T15:29:18.687Z,4.77
2023-02-23T15:32:16.031Z,4.83
2023-02-23T15:35:04.918Z,4.60
2023-02-23T15:37:59.416Z,4.77
2023-02-23T15:40:58.529Z,4.50
2023-02-23T15:43:43.947Z,4.30
2023-02-23T15:46:30.261Z,4.23
2023-02-23T15:49:17.293Z,4.03
2023-02-23T15:52:03.351Z,4.57
2023-02-23T15:54:35.724Z,4.30
2023-02-23T15:57:07.413Z,4.67
2023-02-23T15:59:38.125Z,4.80
2023-02-23T16:02:17.948Z,4.17
2023-02-23T16:04:49.780Z,5.00
2023-02-23T16:07:20.361Z,4.67
2023-02-23T16:09:51.183Z,4.40
2023-02-23T16:12:23.415Z,4.57
2023-02-23T16:14:55.154Z,4.57
2023-02-23T16:17:29.354Z,4.00
2023-02-23T16:20:11.337Z,4.00
2023-02-23T16:22:43.137Z,4.23
2023-02-23T16:25:15.478Z,4.60
2023-02-23T16:27:45.029Z,4.40
2023-02-23T16:30:24.062Z,4.90
2023-02-23T16:33:08.259Z,4.80
2023-02-23T16:35:42.793Z,4.93
2023-02-23T16:38:14.738Z,5.17
2023-02-23T16:40:43.236Z,4.00
2023-02-23T16:43:11.622Z,4.20
2023-02-23T16:45:43.161Z,4.20
2023-02-23T16:48:15.475Z,3.97
2023-02-23T16:50:45.583Z,3.87
2023-02-23T16:53:14.374Z,4.40
2023-02-23T16:55:55.252Z,4.50
2023-02-23T16:58:26.095Z,3.80
2023-02-23T17:00:54.779Z,4.00
2023-02-23T17:03:26.313Z,4.07
2023-02-23T17:05:55.563Z,4.10
2023-02-23T17:08:26.100Z,4.07
2023-02-23T17:10:55.901Z,3.67
2023-02-23T17:13:26.725Z,3.73
2023-02-23T17:15:56.446Z,3.63
2023-02-23T17:18:27.507Z,4.13
2023-02-23T17:20:57.291Z,4.63
2023-02-23T17:23:27.110Z,5.07
2023-02-23T17:25:55.785Z,4.33
2023-02-23T17:28:25.786Z,5.17
2023-02-23T17:30:54.136Z,5.90
2023-02-23T17:33:23.289Z,4.20
2023-02-23T17:35:52.915Z,4.70
2023-02-23T17:38:21.658Z,4.50
2023-02-23T17:40:50.128Z,4.53
2023-02-23T17:43:20.834Z,4.87
2023-02-23T17:45:49.882Z,5.03
2023-02-23T17:48:18.591Z,4.80
2023-02-23T17:50:46.946Z,5.13
2023-02-23T17:53:16.594Z,4.57
2023-02-23T17:55:46.485Z,5.20
2023-02-23T17:58:15.029Z,4.80
2023-02-23T18:00:43.302Z,4.50
2023-02-23T18:03:11.622Z,4.73
2023-02-23T18:05:39.854Z,5.00
2023-02-23T18:08:08.410Z,4.90
2023-02-23T18:10:38.273Z,5.03
2023-02-23T18:13:07.095Z,4.77
2023-02-23T18:15:35.621Z,4.80
2023-02-23T18:18:04.049Z,4.53
2023-02-23T18:20:32.622Z,3.60
2023-02-23T18:23:00.937Z,4.33
2023-02-23T18:25:30.643Z,4.10
2023-02-23T18:28:00.269Z,4.63
2023-02-23T18:30:28.505Z,4.27
2023-02-23T18:33:00.347Z,4.50
2023-02-23T18:35:35.917Z,4.30
2023-02-23T18:38:04.304Z,4.40
2023-02-23T18:40:32.661Z,4.93
2023-02-23T18:43:02.918Z,4.70
2023-02-23T18:45:34.786Z,4.90
2023-02-23T18:48:03.046Z,4.30
2023-02-23T18:50:31.939Z,4.47
2023-02-23T18:53:05.092Z,4.50
2023-02-23T18:55:33.590Z,4.13
2023-02-23T18:58:05.031Z,4.83
2023-02-23T19:00:40.024Z,4.13
2023-02-23T19:03:10.098Z,4.17
2023-02-23T19:05:38.583Z,4.40
2023-02-23T19:08:08.502Z,3.80
2023-02-23T19:10:37.844Z,3.37
2023-02-23T19:13:09.249Z,4.20
2023-02-23T19:15:38.047Z,4.50
2023-02-23T19:18:06.553Z,4.30
2023-02-23T19:20:35.893Z,4.60
2023-02-23T19:23:04.535Z,4.80
2023-02-23T19:25:34.443Z,5.50
2023-02-23T19:28:03.394Z,5.63
2023-02-23T19:30:33.846Z,5.03
2023-02-23T19:33:03.915Z,5.40
2023-02-23T19:35:33.028Z,6.00
2023-02-23T19:38:03.836Z,5.20
2023-02-23T19:40:32.311Z,4.87
2023-02-23T19:43:00.769Z,5.37
2023-02-23T19:45:29.880Z,4.80
2023-02-23T19:47:59.639Z,4.90
2023-02-23T19:50:33.052Z,5.17
2023-02-23T19:53:01.380Z,5.40
2023-02-23T19:55:30.246Z,5.53
2023-02-23T19:57:58.825Z,6.47
2023-02-23T20:00:27.173Z,6.37
2023-02-23T20:03:06.162Z,5.33
2023-02-23T20:05:42.176Z,6.57
2023-02-23T20:08:11.097Z,6.07
2023-02-23T20:10:42.509Z,5.73
2023-02-23T20:13:11.680Z,6.40
2023-02-23T20:15:47.009Z,6.50
2023-02-23T20:18:17.087Z,6.27
2023-02-23T20:20:47.499Z,6.23
2023-02-23T20:23:18.289Z,5.57
2023-02-23T20:25:46.628Z,6.03
2023-02-23T20:28:15.849Z,5.70
2023-02-23T20:30:48.214Z,5.97
2023-02-23T20:33:18.398Z,5.47
2023-02-23T20:35:47.220Z,6.33
2023-02-23T20:38:16.199Z,6.03
2023-02-23T20:40:44.673Z,5.40
2023-02-23T20:43:13.224Z,5.40
2023-02-23T20:45:42.200Z,5.70
2023-02-23T20:48:11.094Z,5.30
2023-02-23T20:50:42.482Z,5.67
2023-02-23T20:53:10.903Z,4.80
2023-02-23T20:55:39.228Z,5.17
2023-02-23T20:58:07.486Z,6.07
2023-02-23T21:00:36.183Z,5.13
2023-02-23T21:03:05.190Z,5.50
2023-02-23T21:05:39.017Z,6.17
2023-02-23T21:08:10.851Z,5.77
2023-02-23T21:10:41.213Z,6.30
2023-02-23T21:13:11.472Z,6.90
2023-02-23T21:15:41.565Z,6.67
2023-02-23T21:18:10.542Z,5.87
2023-02-23T21:20:39.910Z,5.53
2023-02-23T21:23:09.726Z,6.33
2023-02-23T21:25:39.010Z,7.03
2023-02-23T21:28:07.393Z,7.63
2023-02-23T21:30:35.809Z,5.83
2023-02-23T21:33:04.778Z,5.77
2023-02-23T21:35:35.171Z,5.50
2023-02-23T21:38:04.309Z,6.50
2023-02-23T21:40:33.899Z,6.40
2023-02-23T21:43:06.634Z,6.50
2023-02-23T21:45:34.899Z,6.97
2023-02-23T21:48:04.508Z,6.70
2023-02-23T21:50:32.747Z,7.70
2023-02-23T21:53:02.883Z,10.20
2023-02-23T21:55:31.324Z,9.40
2023-02-23T21:58:00.894Z,11.17
2023-02-23T22:00:31.020Z,10.90
2023-02-23T22:02:59.399Z,11.10
2023-02-23T22:05:27.853Z,10.67
2023-02-23T22:07:57.882Z,11.43
2023-02-23T22:10:26.553Z,11.10
2023-02-23T22:12:56.679Z,11.50
2023-02-23T22:15:28.208Z,11.27
2023-02-23T22:17:57.349Z,10.93
2023-02-23T22:20:26.398Z,12.00
2023-02-23T22:22:54.614Z,11.97
2023-02-23T22:25:26.064Z,12.53
2023-02-23T22:27:54.405Z,12.30
2023-02-23T22:30:22.802Z,12.10
2023-02-23T22:32:52.535Z,12.13
2023-02-23T22:35:21.096Z,12.93
2023-02-23T22:37:49.261Z,12.10
2023-02-23T22:40:19.592Z,12.37
2023-02-23T22:42:49.074Z,11.97
2023-02-23T22:45:17.977Z,12.43
2023-02-23T22:47:46.403Z,11.70
2023-02-23T22:50:17.903Z,12.77
2023-02-23T22:52:47.881Z,15.77
2023-02-23T22:55:16.303Z,15.30
2023-02-23T22:57:46.075Z,13.73
2023-02-23T23:00:19.255Z,15.13
2023-02-23T23:02:48.277Z,14.20
2023-02-23T23:05:18.780Z,13.93
2023-02-23T23:07:47.772Z,14.73
2023-02-23T23:10:17.499Z,15.77
2023-02-23T23:12:46.483Z,15.93
2023-02-23T23:15:17.417Z,15.90
2023-02-23T23:17:48.443Z,15.47
2023-02-23T23:20:23.006Z,15.30
2023-02-23T23:22:51.866Z,16.37
2023-02-23T23:25:22.842Z,17.27
2023-02-23T23:27:53.794Z,15.97
2023-02-23T23:30:25.966Z,15.20
2023-02-23T23:32:54.461Z,16.23
2023-02-23T23:35:25.994Z,16.93
2023-02-23T23:37:54.917Z,17.73
2023-02-23T23:40:25.270Z,18.13
2023-02-23T23:42:55.764Z,18.63
2023-02-23T23:45:25.995Z,18.13
2023-02-23T23:47:55.303Z,18.83
2023-02-23T23:50:27.471Z,18.60
2023-02-23T23:52:57.041Z,19.40
2023-02-23T23:55:31.171Z,18.27
2023-02-23T23:58:00.190Z,18.03
